sensor_id;sensor_type;location;lat;lon;timestamp;temperature;humidity
68990;DHT22;56046;47.270;11.368;2022-11-14T00:02:20;6.61;73.80
68990;DHT22;56046;47.270;11.368;2022-11-14T00:04:46;6.75;73.66
68990;DHT22;56046;47.270;11.368;2022-11-14T00:07:12;6.64;74.02
68990;DHT22;56046;47.270;11.368;2022-11-14T00:09:37;6.64;74.09
68990;DHT22;56046;47.270;11.368;2022-11-14T00:12:05;6.71;73.71
68990;DHT22;56046;47.270;11.368;2022-11-14T00:14:30;6.75;73.98
68990;DHT22;56046;47.270;11.368;2022-11-14T00:16:56;7.03;72.29
68990;DHT22;56046;47.270;11.368;2022-11-14T00:19:21;7.10;72.22
68990;DHT22;56046;47.270;11.368;2022-11-14T00:21:46;7.16;71.93
68990;DHT22;56046;47.270;11.368;2022-11-14T00:24:12;7.18;72.36
68990;DHT22;56046;47.270;11.368;2022-11-14T00:26:37;7.21;72.46
68990;DHT22;56046;47.270;11.368;2022-11-14T00:29:03;7.42;67.99
68990;DHT22;56046;47.270;11.368;2022-11-14T00:31:28;7.71;69.82
68990;DHT22;56046;47.270;11.368;2022-11-14T00:33:54;7.55;71.31
68990;DHT22;56046;47.270;11.368;2022-11-14T00:36:19;7.30;71.68
68990;DHT22;56046;47.270;11.368;2022-11-14T00:38:45;7.47;71.98
68990;DHT22;56046;47.270;11.368;2022-11-14T00:41:10;7.78;69.35
68990;DHT22;56046;47.270;11.368;2022-11-14T00:43:35;7.83;69.32
68990;DHT22;56046;47.270;11.368;2022-11-14T00:46:01;9.19;62.36
68990;DHT22;56046;47.270;11.368;2022-11-14T00:48:26;10.26;57.22
68990;DHT22;56046;47.270;11.368;2022-11-14T00:50:52;10.12;59.35
68990;DHT22;56046;47.270;11.368;2022-11-14T00:53:17;10.03;59.46
68990;DHT22;56046;47.270;11.368;2022-11-14T00:55:43;10.16;58.33
68990;DHT22;56046;47.270;11.368;2022-11-14T00:58:08;10.18;58.34
68990;DHT22;56046;47.270;11.368;2022-11-14T01:00:34;10.50;55.64
68990;DHT22;56046;47.270;11.368;2022-11-14T01:03:00;10.85;55.70
68990;DHT22;56046;47.270;11.368;2022-11-14T01:05:26;11.08;55.25
68990;DHT22;56046;47.270;11.368;2022-11-14T01:07:51;11.20;55.18
68990;DHT22;56046;47.270;11.368;2022-11-14T01:10:17;11.29;54.69
68990;DHT22;56046;47.270;11.368;2022-11-14T01:12:43;11.33;55.37
68990;DHT22;56046;47.270;11.368;2022-11-14T01:15:09;11.41;53.74
68990;DHT22;56046;47.270;11.368;2022-11-14T01:17:34;11.67;53.42
68990;DHT22;56046;47.270;11.368;2022-11-14T01:20:00;11.77;53.30
68990;DHT22;56046;47.270;11.368;2022-11-14T01:22:25;11.67;54.73
68990;DHT22;56046;47.270;11.368;2022-11-14T01:24:50;11.61;54.21
68990;DHT22;56046;47.270;11.368;2022-11-14T01:27:16;11.54;55.34
68990;DHT22;56046;47.270;11.368;2022-11-14T01:29:41;11.75;53.39
68990;DHT22;56046;47.270;11.368;2022-11-14T01:32:07;12.02;51.23
68990;DHT22;56046;47.270;11.368;2022-11-14T01:34:32;12.18;52.08
68990;DHT22;56046;47.270;11.368;2022-11-14T01:36:58;12.13;53.05
68990;DHT22;56046;47.270;11.368;2022-11-14T01:39:25;11.48;56.59
68990;DHT22;56046;47.270;11.368;2022-11-14T01:41:51;10.75;58.83
68990;DHT22;56046;47.270;11.368;2022-11-14T01:47:02;10.36;59.21
68990;DHT22;56046;47.270;11.368;2022-11-14T01:49:38;10.61;58.09
68990;DHT22;56046;47.270;11.368;2022-11-14T01:54:52;11.31;55.01
68990;DHT22;56046;47.270;11.368;2022-11-14T01:57:22;11.16;58.43
68990;DHT22;56046;47.270;11.368;2022-11-14T01:59:53;9.97;60.83
68990;DHT22;56046;47.270;11.368;2022-11-14T02:02:21;9.62;62.50
68990;DHT22;56046;47.270;11.368;2022-11-14T02:05:00;9.68;62.55
68990;DHT22;56046;47.270;11.368;2022-11-14T02:07:28;9.34;62.29
68990;DHT22;56046;47.270;11.368;2022-11-14T02:09:55;10.03;57.89
68990;DHT22;56046;47.270;11.368;2022-11-14T02:12:21;11.10;53.54
68990;DHT22;56046;47.270;11.368;2022-11-14T02:14:51;11.55;52.21
68990;DHT22;56046;47.270;11.368;2022-11-14T02:17:18;11.57;55.32
68990;DHT22;56046;47.270;11.368;2022-11-14T02:22:13;11.84;51.71
68990;DHT22;56046;47.270;11.368;2022-11-14T02:24:39;11.77;52.76
68990;DHT22;56046;47.270;11.368;2022-11-14T02:27:05;11.65;54.22
68990;DHT22;56046;47.270;11.368;2022-11-14T02:29:34;11.57;54.28
68990;DHT22;56046;47.270;11.368;2022-11-14T02:32:00;11.63;53.27
68990;DHT22;56046;47.270;11.368;2022-11-14T02:34:25;11.60;53.53
68990;DHT22;56046;47.270;11.368;2022-11-14T02:36:51;11.61;53.54
68990;DHT22;56046;47.270;11.368;2022-11-14T02:39:16;11.70;53.59
68990;DHT22;56046;47.270;11.368;2022-11-14T02:41:42;11.77;52.18
68990;DHT22;56046;47.270;11.368;2022-11-14T02:44:07;11.79;53.81
68990;DHT22;56046;47.270;11.368;2022-11-14T02:46:33;11.74;54.00
68990;DHT22;56046;47.270;11.368;2022-11-14T02:48:58;11.60;55.97
68990;DHT22;56046;47.270;11.368;2022-11-14T02:51:23;11.57;54.20
68990;DHT22;56046;47.270;11.368;2022-11-14T02:53:49;11.81;52.00
68990;DHT22;56046;47.270;11.368;2022-11-14T02:56:14;11.78;52.63
68990;DHT22;56046;47.270;11.368;2022-11-14T02:58:40;11.93;51.82
68990;DHT22;56046;47.270;11.368;2022-11-14T03:01:05;12.05;51.64
68990;DHT22;56046;47.270;11.368;2022-11-14T03:03:31;12.23;52.39
68990;DHT22;56046;47.270;11.368;2022-11-14T03:06:00;12.20;51.56
68990;DHT22;56046;47.270;11.368;2022-11-14T03:08:25;12.11;52.56
68990;DHT22;56046;47.270;11.368;2022-11-14T03:10:50;12.18;50.87
68990;DHT22;56046;47.270;11.368;2022-11-14T03:13:16;12.25;52.62
68990;DHT22;56046;47.270;11.368;2022-11-14T03:15:41;12.13;51.60
68990;DHT22;56046;47.270;11.368;2022-11-14T03:18:07;12.09;52.20
68990;DHT22;56046;47.270;11.368;2022-11-14T03:20:33;12.02;51.47
68990;DHT22;56046;47.270;11.368;2022-11-14T03:22:58;12.13;51.44
68990;DHT22;56046;47.270;11.368;2022-11-14T03:25:23;11.96;54.80
68990;DHT22;56046;47.270;11.368;2022-11-14T03:27:49;11.79;54.79
68990;DHT22;56046;47.270;11.368;2022-11-14T03:30:14;11.75;53.72
68990;DHT22;56046;47.270;11.368;2022-11-14T03:32:40;11.82;52.72
68990;DHT22;56046;47.270;11.368;2022-11-14T03:35:06;11.82;55.38
68990;DHT22;56046;47.270;11.368;2022-11-14T03:37:32;11.73;55.00
68990;DHT22;56046;47.270;11.368;2022-11-14T03:39:57;11.64;57.26
68990;DHT22;56046;47.270;11.368;2022-11-14T03:42:22;11.63;54.74
68990;DHT22;56046;47.270;11.368;2022-11-14T03:44:48;11.64;55.08
68990;DHT22;56046;47.270;11.368;2022-11-14T03:47:13;11.82;51.11
68990;DHT22;56046;47.270;11.368;2022-11-14T03:49:39;11.79;54.93
68990;DHT22;56046;47.270;11.368;2022-11-14T03:52:05;11.23;54.68
68990;DHT22;56046;47.270;11.368;2022-11-14T03:54:30;11.20;56.39
68990;DHT22;56046;47.270;11.368;2022-11-14T03:56:56;10.91;56.99
68990;DHT22;56046;47.270;11.368;2022-11-14T03:59:21;11.19;53.60
68990;DHT22;56046;47.270;11.368;2022-11-14T04:01:46;11.47;53.51
68990;DHT22;56046;47.270;11.368;2022-11-14T04:04:13;11.48;54.63
68990;DHT22;56046;47.270;11.368;2022-11-14T04:06:39;11.65;53.56
68990;DHT22;56046;47.270;11.368;2022-11-14T04:09:05;11.30;54.94
68990;DHT22;56046;47.270;11.368;2022-11-14T04:11:31;11.20;56.49
68990;DHT22;56046;47.270;11.368;2022-11-14T04:13:56;11.19;57.19
68990;DHT22;56046;47.270;11.368;2022-11-14T04:16:21;11.13;54.88
68990;DHT22;56046;47.270;11.368;2022-11-14T04:18:47;11.02;55.74
68990;DHT22;56046;47.270;11.368;2022-11-14T04:21:12;11.40;54.23
68990;DHT22;56046;47.270;11.368;2022-11-14T04:23:38;11.37;56.64
68990;DHT22;56046;47.270;11.368;2022-11-14T04:26:03;10.96;54.85
68990;DHT22;56046;47.270;11.368;2022-11-14T04:28:29;11.36;52.65
68990;DHT22;56046;47.270;11.368;2022-11-14T04:30:54;11.74;52.39
68990;DHT22;56046;47.270;11.368;2022-11-14T04:33:20;11.74;52.13
68990;DHT22;56046;47.270;11.368;2022-11-14T04:35:47;12.09;50.54
68990;DHT22;56046;47.270;11.368;2022-11-14T04:38:12;12.26;50.52
68990;DHT22;56046;47.270;11.368;2022-11-14T04:40:37;12.25;50.63
68990;DHT22;56046;47.270;11.368;2022-11-14T04:43:03;12.28;50.90
68990;DHT22;56046;47.270;11.368;2022-11-14T04:45:28;12.23;50.69
68990;DHT22;56046;47.270;11.368;2022-11-14T04:47:54;12.33;50.67
68990;DHT22;56046;47.270;11.368;2022-11-14T04:50:19;12.51;49.83
68990;DHT22;56046;47.270;11.368;2022-11-14T04:52:45;12.51;50.00
68990;DHT22;56046;47.270;11.368;2022-11-14T04:55:10;12.44;50.40
68990;DHT22;56046;47.270;11.368;2022-11-14T04:57:36;12.58;49.54
68990;DHT22;56046;47.270;11.368;2022-11-14T05:00:02;12.67;48.84
68990;DHT22;56046;47.270;11.368;2022-11-14T05:02:30;12.77;48.85
68990;DHT22;56046;47.270;11.368;2022-11-14T05:04:56;12.78;48.92
68990;DHT22;56046;47.270;11.368;2022-11-14T05:07:21;12.75;49.08
68990;DHT22;56046;47.270;11.368;2022-11-14T05:09:47;12.73;48.91
68990;DHT22;56046;47.270;11.368;2022-11-14T05:12:12;12.77;48.97
68990;DHT22;56046;47.270;11.368;2022-11-14T05:14:37;12.73;49.26
68990;DHT22;56046;47.270;11.368;2022-11-14T05:17:03;12.67;49.78
68990;DHT22;56046;47.270;11.368;2022-11-14T05:19:28;12.67;49.62
68990;DHT22;56046;47.270;11.368;2022-11-14T05:21:54;12.60;49.65
68990;DHT22;56046;47.270;11.368;2022-11-14T05:24:19;12.60;49.72
68990;DHT22;56046;47.270;11.368;2022-11-14T05:26:45;12.63;49.47
68990;DHT22;56046;47.270;11.368;2022-11-14T05:29:10;12.61;48.74
68990;DHT22;56046;47.270;11.368;2022-11-14T05:31:35;12.74;48.77
68990;DHT22;56046;47.270;11.368;2022-11-14T05:34:01;12.81;48.80
68990;DHT22;56046;47.270;11.368;2022-11-14T05:36:26;12.78;48.68
68990;DHT22;56046;47.270;11.368;2022-11-14T05:38:52;12.81;48.65
68990;DHT22;56046;47.270;11.368;2022-11-14T05:41:18;12.80;48.66
68990;DHT22;56046;47.270;11.368;2022-11-14T05:43:46;12.80;48.10
68990;DHT22;56046;47.270;11.368;2022-11-14T05:46:14;12.89;47.54
68990;DHT22;56046;47.270;11.368;2022-11-14T05:48:40;13.06;47.55
68990;DHT22;56046;47.270;11.368;2022-11-14T05:51:09;13.12;47.27
68990;DHT22;56046;47.270;11.368;2022-11-14T05:53:35;13.18;47.11
68990;DHT22;56046;47.270;11.368;2022-11-14T05:56:02;13.25;46.79
68990;DHT22;56046;47.270;11.368;2022-11-14T05:58:33;13.26;46.37
68990;DHT22;56046;47.270;11.368;2022-11-14T06:01:07;13.32;46.34
68990;DHT22;56046;47.270;11.368;2022-11-14T06:03:35;13.39;45.89
68990;DHT22;56046;47.270;11.368;2022-11-14T06:06:02;13.43;45.94
68990;DHT22;56046;47.270;11.368;2022-11-14T06:08:29;13.43;46.12
68990;DHT22;56046;47.270;11.368;2022-11-14T06:10:54;13.33;45.67
68990;DHT22;56046;47.270;11.368;2022-11-14T06:13:20;13.35;45.27
68990;DHT22;56046;47.270;11.368;2022-11-14T06:15:48;13.33;47.00
68990;DHT22;56046;47.270;11.368;2022-11-14T06:18:14;13.11;48.25
68990;DHT22;56046;47.270;11.368;2022-11-14T06:20:39;13.01;47.16
68990;DHT22;56046;47.270;11.368;2022-11-14T06:23:05;12.83;49.21
68990;DHT22;56046;47.270;11.368;2022-11-14T06:25:30;12.92;46.92
68990;DHT22;56046;47.270;11.368;2022-11-14T06:27:57;13.08;46.51
68990;DHT22;56046;47.270;11.368;2022-11-14T06:30:22;13.12;46.84
68990;DHT22;56046;47.270;11.368;2022-11-14T06:32:48;13.18;47.40
68990;DHT22;56046;47.270;11.368;2022-11-14T06:35:14;13.04;48.56
68990;DHT22;56046;47.270;11.368;2022-11-14T06:37:41;12.95;49.26
68990;DHT22;56046;47.270;11.368;2022-11-14T06:40:07;12.96;49.59
68990;DHT22;56046;47.270;11.368;2022-11-14T06:42:32;12.92;48.73
68990;DHT22;56046;47.270;11.368;2022-11-14T06:44:58;12.84;49.76
68990;DHT22;56046;47.270;11.368;2022-11-14T06:47:23;12.85;49.45
68990;DHT22;56046;47.270;11.368;2022-11-14T06:49:49;12.98;47.25
68990;DHT22;56046;47.270;11.368;2022-11-14T06:52:14;13.08;47.18
68990;DHT22;56046;47.270;11.368;2022-11-14T06:54:39;13.30;45.96
68990;DHT22;56046;47.270;11.368;2022-11-14T06:57:05;13.40;47.18
68990;DHT22;56046;47.270;11.368;2022-11-14T06:59:30;13.33;47.36
68990;DHT22;56046;47.270;11.368;2022-11-14T07:01:56;13.29;49.25
68990;DHT22;56046;47.270;11.368;2022-11-14T07:04:21;13.22;51.18
68990;DHT22;56046;47.270;11.368;2022-11-14T07:06:46;12.80;51.38
68990;DHT22;56046;47.270;11.368;2022-11-14T07:09:12;12.74;50.86
68990;DHT22;56046;47.270;11.368;2022-11-14T07:11:37;12.64;50.09
68990;DHT22;56046;47.270;11.368;2022-11-14T07:14:03;13.19;46.04
68990;DHT22;56046;47.270;11.368;2022-11-14T07:16:34;13.42;45.77
68990;DHT22;56046;47.270;11.368;2022-11-14T07:19:01;13.30;46.03
68990;DHT22;56046;47.270;11.368;2022-11-14T07:21:28;13.63;45.47
68990;DHT22;56046;47.270;11.368;2022-11-14T07:23:55;13.85;45.26
68990;DHT22;56046;47.270;11.368;2022-11-14T07:26:20;13.88;45.10
68990;DHT22;56046;47.270;11.368;2022-11-14T07:28:46;13.87;45.63
68990;DHT22;56046;47.270;11.368;2022-11-14T07:31:14;13.85;45.14
68990;DHT22;56046;47.270;11.368;2022-11-14T07:33:40;13.92;44.40
68990;DHT22;56046;47.270;11.368;2022-11-14T07:36:07;14.05;43.21
68990;DHT22;56046;47.270;11.368;2022-11-14T07:38:34;14.04;44.59
68990;DHT22;56046;47.270;11.368;2022-11-14T07:41:11;14.16;44.72
68990;DHT22;56046;47.270;11.368;2022-11-14T07:43:37;14.18;44.72
68990;DHT22;56046;47.270;11.368;2022-11-14T07:46:05;14.22;43.35
68990;DHT22;56046;47.270;11.368;2022-11-14T07:48:32;14.39;42.65
68990;DHT22;56046;47.270;11.368;2022-11-14T07:51:02;14.55;42.31
68990;DHT22;56046;47.270;11.368;2022-11-14T07:53:29;14.59;42.05
68990;DHT22;56046;47.270;11.368;2022-11-14T07:55:55;14.73;43.66
68990;DHT22;56046;47.270;11.368;2022-11-14T07:58:21;14.50;49.10
68990;DHT22;56046;47.270;11.368;2022-11-14T08:00:47;13.64;51.30
68990;DHT22;56046;47.270;11.368;2022-11-14T08:03:12;13.18;52.28
68990;DHT22;56046;47.270;11.368;2022-11-14T08:05:38;12.60;52.86
68990;DHT22;56046;47.270;11.368;2022-11-14T08:08:03;12.60;50.62
68990;DHT22;56046;47.270;11.368;2022-11-14T08:10:29;12.74;49.58
68990;DHT22;56046;47.270;11.368;2022-11-14T08:12:58;13.09;47.55
68990;DHT22;56046;47.270;11.368;2022-11-14T08:15:24;13.59;45.37
68990;DHT22;56046;47.270;11.368;2022-11-14T08:17:50;13.30;51.56
68990;DHT22;56046;47.270;11.368;2022-11-14T08:20:15;12.68;53.23
68990;DHT22;56046;47.270;11.368;2022-11-14T08:22:40;12.43;54.11
68990;DHT22;56046;47.270;11.368;2022-11-14T08:25:06;12.28;54.51
68990;DHT22;56046;47.270;11.368;2022-11-14T08:27:32;11.93;56.46
68990;DHT22;56046;47.270;11.368;2022-11-14T08:29:57;11.95;56.56
68990;DHT22;56046;47.270;11.368;2022-11-14T08:32:22;11.99;57.13
68990;DHT22;56046;47.270;11.368;2022-11-14T08:34:48;11.96;56.42
68990;DHT22;56046;47.270;11.368;2022-11-14T08:37:13;11.88;56.33
68990;DHT22;56046;47.270;11.368;2022-11-14T08:39:39;11.81;56.25
68990;DHT22;56046;47.270;11.368;2022-11-14T08:42:04;12.30;49.86
68990;DHT22;56046;47.270;11.368;2022-11-14T08:44:30;13.18;46.26
68990;DHT22;56046;47.270;11.368;2022-11-14T08:46:55;13.71;45.86
68990;DHT22;56046;47.270;11.368;2022-11-14T08:49:21;14.00;43.33
68990;DHT22;56046;47.270;11.368;2022-11-14T08:51:46;14.28;44.10
68990;DHT22;56046;47.270;11.368;2022-11-14T08:54:12;14.29;44.74
68990;DHT22;56046;47.270;11.368;2022-11-14T08:56:37;14.24;49.92
68990;DHT22;56046;47.270;11.368;2022-11-14T08:59:03;13.77;51.49
68990;DHT22;56046;47.270;11.368;2022-11-14T09:01:29;13.06;52.77
68990;DHT22;56046;47.270;11.368;2022-11-14T09:03:57;13.25;47.94
68990;DHT22;56046;47.270;11.368;2022-11-14T09:06:23;13.77;45.48
68990;DHT22;56046;47.270;11.368;2022-11-14T09:08:48;14.28;42.95
68990;DHT22;56046;47.270;11.368;2022-11-14T09:11:13;14.67;43.22
68990;DHT22;56046;47.270;11.368;2022-11-14T09:13:39;14.26;50.53
68990;DHT22;56046;47.270;11.368;2022-11-14T09:16:05;13.47;49.87
68990;DHT22;56046;47.270;11.368;2022-11-14T09:18:30;14.12;48.02
68990;DHT22;56046;47.270;11.368;2022-11-14T09:21:03;14.55;43.71
68990;DHT22;56046;47.270;11.368;2022-11-14T09:23:29;15.22;42.80
68990;DHT22;56046;47.270;11.368;2022-11-14T09:25:54;15.76;40.91
68990;DHT22;56046;47.270;11.368;2022-11-14T09:28:22;15.86;40.38
68990;DHT22;56046;47.270;11.368;2022-11-14T09:30:47;16.05;39.26
68990;DHT22;56046;47.270;11.368;2022-11-14T09:33:13;16.42;38.95
68990;DHT22;56046;47.270;11.368;2022-11-14T09:35:38;16.60;39.19
68990;DHT22;56046;47.270;11.368;2022-11-14T09:38:06;16.90;38.09
68990;DHT22;56046;47.270;11.368;2022-11-14T09:46:24;16.76;37.73
68990;DHT22;56046;47.270;11.368;2022-11-14T09:48:51;16.75;37.53
68990;DHT22;56046;47.270;11.368;2022-11-14T09:51:23;16.69;36.90
68990;DHT22;56046;47.270;11.368;2022-11-14T09:54:00;16.62;36.67
68990;DHT22;56046;47.270;11.368;2022-11-14T09:56:29;16.84;37.15
68990;DHT22;56046;47.270;11.368;2022-11-14T09:58:54;17.04;36.86
68990;DHT22;56046;47.270;11.368;2022-11-14T10:10:33;16.99;37.03
68990;DHT22;56046;47.270;11.368;2022-11-14T10:13:57;17.13;36.48
68990;DHT22;56046;47.270;11.368;2022-11-14T10:16:40;17.07;36.93
68990;DHT22;56046;47.270;11.368;2022-11-14T10:22:20;17.02;36.60
68990;DHT22;56046;47.270;11.368;2022-11-14T10:24:55;17.02;37.47
68990;DHT22;56046;47.270;11.368;2022-11-14T10:27:37;17.06;36.34
68990;DHT22;56046;47.270;11.368;2022-11-14T10:30:15;17.02;36.61
68990;DHT22;56046;47.270;11.368;2022-11-14T10:35:20;17.32;36.29
68990;DHT22;56046;47.270;11.368;2022-11-14T10:39:11;17.15;36.45
68990;DHT22;56046;47.270;11.368;2022-11-14T10:41:05;17.07;36.07
68990;DHT22;56046;47.270;11.368;2022-11-14T10:43:43;17.25;36.30
68990;DHT22;56046;47.270;11.368;2022-11-14T10:49:14;17.03;36.33
68990;DHT22;56046;47.270;11.368;2022-11-14T10:51:44;17.07;35.80
68990;DHT22;56046;47.270;11.368;2022-11-14T10:54:20;16.97;36.54
68990;DHT22;56046;47.270;11.368;2022-11-14T10:56:47;16.84;35.80
68990;DHT22;56046;47.270;11.368;2022-11-14T10:59:13;16.99;36.29
68990;DHT22;56046;47.270;11.368;2022-11-14T11:01:43;16.99;36.60
68990;DHT22;56046;47.270;11.368;2022-11-14T11:04:32;16.87;36.72
68990;DHT22;56046;47.270;11.368;2022-11-14T11:09:35;16.81;36.70
68990;DHT22;56046;47.270;11.368;2022-11-14T11:12:36;16.79;36.26
68990;DHT22;56046;47.270;11.368;2022-11-14T11:15:20;16.97;36.44
68990;DHT22;56046;47.270;11.368;2022-11-14T11:18:04;16.77;36.54
68990;DHT22;56046;47.270;11.368;2022-11-14T11:25:36;16.86;36.15
68990;DHT22;56046;47.270;11.368;2022-11-14T11:28:18;16.96;36.02
68990;DHT22;56046;47.270;11.368;2022-11-14T11:30:57;16.86;36.35
68990;DHT22;56046;47.270;11.368;2022-11-14T11:33:25;17.02;36.61
68990;DHT22;56046;47.270;11.368;2022-11-14T11:35:55;17.11;37.16
68990;DHT22;56046;47.270;11.368;2022-11-14T11:38:24;17.17;37.32
68990;DHT22;56046;47.270;11.368;2022-11-14T11:40:53;17.03;36.19
68990;DHT22;56046;47.270;11.368;2022-11-14T11:49:18;17.46;35.63
68990;DHT22;56046;47.270;11.368;2022-11-14T11:51:51;17.32;35.49
68990;DHT22;56046;47.270;11.368;2022-11-14T11:54:29;17.31;36.23
68990;DHT22;56046;47.270;11.368;2022-11-14T11:57:00;17.39;36.47
68990;DHT22;56046;47.270;11.368;2022-11-14T12:02:18;17.13;36.40
68990;DHT22;56046;47.270;11.368;2022-11-14T12:04:44;17.21;35.82
68990;DHT22;56046;47.270;11.368;2022-11-14T12:07:18;17.25;36.26
68990;DHT22;56046;47.270;11.368;2022-11-14T12:09:45;17.18;36.05
68990;DHT22;56046;47.270;11.368;2022-11-14T12:23:49;16.96;36.95
68990;DHT22;56046;47.270;11.368;2022-11-14T12:26:01;16.81;36.85
68990;DHT22;56046;47.270;11.368;2022-11-14T12:28:57;16.62;37.29
68990;DHT22;56046;47.270;11.368;2022-11-14T12:31:33;16.53;38.27
68990;DHT22;56046;47.270;11.368;2022-11-14T12:34:04;16.49;38.65
68990;DHT22;56046;47.270;11.368;2022-11-14T12:36:33;16.48;38.71
68990;DHT22;56046;47.270;11.368;2022-11-14T12:39:00;16.49;38.29
68990;DHT22;56046;47.270;11.368;2022-11-14T12:41:29;16.29;37.97
68990;DHT22;56046;47.270;11.368;2022-11-14T12:44:18;16.20;38.85
68990;DHT22;56046;47.270;11.368;2022-11-14T12:58:09;16.12;38.87
68990;DHT22;56046;47.270;11.368;2022-11-14T13:01:07;16.21;38.58
68990;DHT22;56046;47.270;11.368;2022-11-14T13:06:10;16.15;39.38
68990;DHT22;56046;47.270;11.368;2022-11-14T13:14:24;16.14;39.31
68990;DHT22;56046;47.270;11.368;2022-11-14T13:17:28;16.04;39.26
68990;DHT22;56046;47.270;11.368;2022-11-14T13:20:41;16.05;38.91
68990;DHT22;56046;47.270;11.368;2022-11-14T13:36:29;15.76;40.52
68990;DHT22;56046;47.270;11.368;2022-11-14T13:50:38;15.45;40.42
68990;DHT22;56046;47.270;11.368;2022-11-14T13:53:20;15.31;41.04
68990;DHT22;56046;47.270;11.368;2022-11-14T13:59:03;15.25;40.87
68990;DHT22;56046;47.270;11.368;2022-11-14T14:07:21;15.02;41.56
68990;DHT22;56046;47.270;11.368;2022-11-14T14:12:47;14.84;42.56
68990;DHT22;56046;47.270;11.368;2022-11-14T14:15:34;14.69;43.02
68990;DHT22;56046;47.270;11.368;2022-11-14T14:18:09;14.70;42.61
68990;DHT22;56046;47.270;11.368;2022-11-14T14:20:46;14.53;42.53
68990;DHT22;56046;47.270;11.368;2022-11-14T14:33:26;14.33;41.97
68990;DHT22;56046;47.270;11.368;2022-11-14T14:35:54;14.32;42.25
68990;DHT22;56046;47.270;11.368;2022-11-14T14:38:26;14.22;42.72
68990;DHT22;56046;47.270;11.368;2022-11-14T14:40:55;14.15;43.05
68990;DHT22;56046;47.270;11.368;2022-11-14T14:43:24;13.91;43.39
68990;DHT22;56046;47.270;11.368;2022-11-14T14:45:53;13.92;43.74
68990;DHT22;56046;47.270;11.368;2022-11-14T14:48:25;13.74;44.27
68990;DHT22;56046;47.270;11.368;2022-11-14T14:50:56;13.71;43.60
68990;DHT22;56046;47.270;11.368;2022-11-14T14:53:28;13.60;44.21
68990;DHT22;56046;47.270;11.368;2022-11-14T14:56:02;13.42;44.77
68990;DHT22;56046;47.270;11.368;2022-11-14T14:58:30;13.36;45.04
68990;DHT22;56046;47.270;11.368;2022-11-14T15:01:03;13.27;44.85
68990;DHT22;56046;47.270;11.368;2022-11-14T15:03:34;13.16;45.32
68990;DHT22;56046;47.270;11.368;2022-11-14T15:06:03;13.09;44.60
68990;DHT22;56046;47.270;11.368;2022-11-14T15:08:30;13.01;44.77
68990;DHT22;56046;47.270;11.368;2022-11-14T15:11:00;12.88;44.96
68990;DHT22;56046;47.270;11.368;2022-11-14T15:13:27;12.92;44.24
68990;DHT22;56046;47.270;11.368;2022-11-14T15:15:53;13.01;44.54
68990;DHT22;56046;47.270;11.368;2022-11-14T15:18:27;13.01;44.13
68990;DHT22;56046;47.270;11.368;2022-11-14T15:23:32;12.78;44.78
68990;DHT22;56046;47.270;11.368;2022-11-14T15:26:01;12.81;44.22
68990;DHT22;56046;47.270;11.368;2022-11-14T15:28:28;12.81;44.74
68990;DHT22;56046;47.270;11.368;2022-11-14T15:31:01;12.58;45.06
68990;DHT22;56046;47.270;11.368;2022-11-14T15:33:33;12.57;45.36
68990;DHT22;56046;47.270;11.368;2022-11-14T15:36:07;12.58;45.41
68990;DHT22;56046;47.270;11.368;2022-11-14T15:38:33;12.57;45.57
68990;DHT22;56046;47.270;11.368;2022-11-14T15:51:57;12.30;47.39
68990;DHT22;56046;47.270;11.368;2022-11-14T15:54:31;12.06;49.21
68990;DHT22;56046;47.270;11.368;2022-11-14T15:57:05;11.91;48.20
68990;DHT22;56046;47.270;11.368;2022-11-14T15:59:35;11.85;50.25
68990;DHT22;56046;47.270;11.368;2022-11-14T16:02:09;11.85;48.55
68990;DHT22;56046;47.270;11.368;2022-11-14T16:04:36;12.16;46.77
68990;DHT22;56046;47.270;11.368;2022-11-14T16:07:03;12.25;47.09
68990;DHT22;56046;47.270;11.368;2022-11-14T16:09:29;12.12;48.32
68990;DHT22;56046;47.270;11.368;2022-11-14T16:11:54;11.96;48.52
68990;DHT22;56046;47.270;11.368;2022-11-14T16:14:20;12.02;47.45
68990;DHT22;56046;47.270;11.368;2022-11-14T16:16:45;12.29;46.80
68990;DHT22;56046;47.270;11.368;2022-11-14T16:19:13;12.33;46.82
68990;DHT22;56046;47.270;11.368;2022-11-14T16:21:39;12.41;45.95
68990;DHT22;56046;47.270;11.368;2022-11-14T16:24:08;12.46;45.80
68990;DHT22;56046;47.270;11.368;2022-11-14T16:26:35;12.22;46.92
68990;DHT22;56046;47.270;11.368;2022-11-14T16:29:02;12.02;48.13
68990;DHT22;56046;47.270;11.368;2022-11-14T16:31:27;12.02;47.50
68990;DHT22;56046;47.270;11.368;2022-11-14T16:33:53;11.91;49.29
68990;DHT22;56046;47.270;11.368;2022-11-14T16:36:20;11.88;48.86
68990;DHT22;56046;47.270;11.368;2022-11-14T16:38:46;11.79;48.86
68990;DHT22;56046;47.270;11.368;2022-11-14T16:41:12;11.68;49.68
68990;DHT22;56046;47.270;11.368;2022-11-14T16:43:38;11.63;48.85
68990;DHT22;56046;47.270;11.368;2022-11-14T16:46:04;11.93;47.66
68990;DHT22;56046;47.270;11.368;2022-11-14T16:48:30;12.02;47.35
68990;DHT22;56046;47.270;11.368;2022-11-14T16:51:02;12.18;47.18
68990;DHT22;56046;47.270;11.368;2022-11-14T16:53:28;12.09;48.43
68990;DHT22;56046;47.270;11.368;2022-11-14T16:55:55;12.09;47.49
68990;DHT22;56046;47.270;11.368;2022-11-14T16:58:20;12.06;48.02
68990;DHT22;56046;47.270;11.368;2022-11-14T17:00:46;11.93;49.53
68990;DHT22;56046;47.270;11.368;2022-11-14T17:03:12;11.78;49.29
68990;DHT22;56046;47.270;11.368;2022-11-14T17:05:45;11.75;48.09
68990;DHT22;56046;47.270;11.368;2022-11-14T17:08:11;12.05;46.49
68990;DHT22;56046;47.270;11.368;2022-11-14T17:10:44;11.93;48.26
68990;DHT22;56046;47.270;11.368;2022-11-14T17:13:10;11.86;48.58
68990;DHT22;56046;47.270;11.368;2022-11-14T17:15:37;11.70;48.60
68990;DHT22;56046;47.270;11.368;2022-11-14T17:18:03;11.68;48.21
68990;DHT22;56046;47.270;11.368;2022-11-14T17:20:29;11.43;50.00
68990;DHT22;56046;47.270;11.368;2022-11-14T17:22:54;11.34;50.40
68990;DHT22;56046;47.270;11.368;2022-11-14T17:25:21;11.47;49.45
68990;DHT22;56046;47.270;11.368;2022-11-14T17:27:47;11.50;49.03
68990;DHT22;56046;47.270;11.368;2022-11-14T17:30:16;11.70;48.33
68990;DHT22;56046;47.270;11.368;2022-11-14T17:32:42;11.67;48.42
68990;DHT22;56046;47.270;11.368;2022-11-14T17:35:12;11.71;48.66
68990;DHT22;56046;47.270;11.368;2022-11-14T17:37:38;11.63;48.83
68990;DHT22;56046;47.270;11.368;2022-11-14T17:40:04;11.48;49.54
68990;DHT22;56046;47.270;11.368;2022-11-14T17:42:30;11.38;50.66
68990;DHT22;56046;47.270;11.368;2022-11-14T17:44:55;11.27;49.71